Time;durP1;ratioP1;P1;durP2;ratioP2;P2;SDS_P1;SDS_P2;PMS_P1;PMS_P2;Temp;Humidity;BMP_temperature;BMP_pressure;BME280_temperature;BME280_humidity;BME280_pressure;Samples;Min_cycle;Max_cycle;Signal;HPM_P1;HPM_P2
2023/07/23 07:00:57;;;;;;;4.70;1.75;;;23.50;67.90;;;;;;4964753;23;20344;-72
2023/07/23 07:03:23;;;;;;;4.03;1.73;;;23.50;67.40;;;;;;4964691;29;20066;-72
2023/07/23 07:05:49;;;;;;;2.60;1.60;;;23.50;67.40;;;;;;4965816;29;20066;-73
2023/07/23 07:08:15;;;;;;;5.25;1.73;;;23.70;66.50;;;;;;4929948;29;20035;-73
2023/07/23 07:10:41;;;;;;;3.00;1.52;;;23.60;66.20;;;;;;4946365;29;20089;-73
2023/07/23 07:13:06;;;;;;;3.45;1.60;;;23.70;66.80;;;;;;4946797;29;20317;-74
2023/07/23 07:15:32;;;;;;;5.82;1.92;;;23.50;66.90;;;;;;4950073;29;20023;-73
2023/07/23 07:17:58;;;;;;;3.47;1.55;;;23.50;67.00;;;;;;4965780;29;20032;-71
2023/07/23 07:20:24;;;;;;;3.60;1.50;;;23.40;67.40;;;;;;4948838;29;20042;-72
2023/07/23 07:22:49;;;;;;;3.88;1.55;;;23.60;67.10;;;;;;4965438;29;20051;-73
2023/07/23 07:25:15;;;;;;;2.67;1.50;;;23.70;66.60;;;;;;4956938;29;20321;-73
2023/07/23 07:27:41;;;;;;;3.15;1.50;;;23.90;66.10;;;;;;4948082;28;20039;-72
2023/07/23 07:30:07;;;;;;;3.78;1.63;;;24.20;66.40;;;;;;4971221;28;20034;-72
2023/07/23 07:32:33;;;;;;;4.85;1.33;;;24.40;65.50;;;;;;4963862;29;20023;-73
2023/07/23 07:34:58;;;;;;;4.25;1.55;;;24.50;65.10;;;;;;4946904;29;20070;-72
2023/07/23 07:37:25;;;;;;;2.40;1.20;;;24.80;64.50;;;;;;4944818;29;20039;-72
2023/07/23 07:39:51;;;;;;;2.90;1.50;;;24.90;64.60;;;;;;4948630;29;20062;-72
2023/07/23 07:42:17;;;;;;;3.20;1.60;;;25.10;63.70;;;;;;4965247;29;20035;-72
2023/07/23 07:44:43;;;;;;;2.30;1.50;;;25.30;63.90;;;;;;4964250;29;20059;-73
2023/07/23 07:47:09;;;;;;;3.47;1.67;;;25.40;63.20;;;;;;4965199;29;20031;-71
2023/07/23 07:49:34;;;;;;;2.63;1.40;;;25.60;63.20;;;;;;4965010;29;20058;-70
2023/07/23 07:52:00;;;;;;;2.50;1.45;;;25.80;62.70;;;;;;4965367;29;20115;-73
2023/07/23 07:54:26;;;;;;;3.15;1.60;;;25.90;62.30;;;;;;4964864;29;20054;-71
2023/07/23 07:56:52;;;;;;;3.38;1.52;;;26.00;62.20;;;;;;4948058;29;20067;-72
2023/07/23 07:59:18;;;;;;;2.80;1.35;;;26.10;62.50;;;;;;4965883;28;20047;-73
2023/07/23 08:01:44;;;;;;;2.60;1.65;;;26.20;62.50;;;;;;4964326;29;20264;-73
2023/07/23 08:04:10;;;;;;;3.15;1.67;;;26.30;62.10;;;;;;4964087;28;20031;-72
2023/07/23 08:06:37;;;;;;;3.10;1.42;;;26.10;62.10;;;;;;4959149;29;20030;-72
2023/07/23 08:09:04;;;;;;;2.80;1.60;;;26.10;62.10;;;;;;4964761;29;20039;-72
2023/07/23 08:11:31;;;;;;;3.17;1.73;;;26.20;62.80;;;;;;4964299;29;20090;-73
2023/07/23 08:13:57;;;;;;;3.30;1.67;;;26.30;62.00;;;;;;4964842;29;20034;-75
2023/07/23 08:16:23;;;;;;;2.83;1.50;;;26.40;61.90;;;;;;4933037;29;20074;-71
2023/07/23 08:18:51;;;;;;;2.88;1.55;;;26.40;61.40;;;;;;4964905;29;20035;-73
2023/07/23 08:21:18;;;;;;;4.57;1.50;;;26.40;62.10;;;;;;4932456;29;20090;-72
2023/07/23 08:23:46;;;;;;;3.97;1.85;;;26.80;61.10;;;;;;4965240;29;20035;-72
2023/07/23 08:26:20;;;;;;;3.30;1.42;;;26.60;61.70;;;;;;4947765;29;20135;-71
2023/07/23 08:28:51;;;;;;;4.57;1.40;;;26.60;61.70;;;;;;4962178;29;20053;-71
2023/07/23 08:31:20;;;;;;;2.97;1.58;;;26.70;62.20;;;;;;4964845;29;20062;-73
2023/07/23 08:33:48;;;;;;;3.13;1.77;;;26.50;62.80;;;;;;4963974;29;20039;-73
2023/07/23 08:36:14;;;;;;;2.67;1.40;;;26.80;61.80;;;;;;4964715;29;20143;-72
2023/07/23 08:38:40;;;;;;;4.93;1.98;;;27.00;61.70;;;;;;4964691;29;20046;-73
2023/07/23 08:41:35;;;;;;;2.60;1.25;;;27.20;61.60;;;;;;4964765;29;20023;-73
2023/07/23 08:44:16;;;;;;;2.53;1.33;;;27.20;61.10;;;;;;4964520;29;20082;-72
2023/07/23 08:46:46;;;;;;;3.13;1.40;;;26.90;61.40;;;;;;4964122;29;20035;-72
2023/07/23 08:49:12;;;;;;;2.72;1.33;;;26.80;62.00;;;;;;4963716;29;20054;-73
2023/07/23 08:51:43;;;;;;;3.38;1.45;;;26.60;61.80;;;;;;4964364;29;20027;-73
2023/07/23 08:54:13;;;;;;;2.08;1.17;;;26.80;62.30;;;;;;4964600;29;20043;-73
2023/07/23 08:56:40;;;;;;;2.30;1.10;;;26.80;61.50;;;;;;4961067;29;20050;-71
2023/07/23 08:59:07;;;;;;;4.25;1.20;;;26.90;61.90;;;;;;4957040;29;20040;-73
2023/07/23 09:01:40;;;;;;;3.28;1.10;;;26.90;61.70;;;;;;4956369;29;20023;-71
2023/07/23 09:04:08;;;;;;;2.30;1.00;;;26.70;62.00;;;;;;4964349;29;20220;-73
2023/07/23 09:06:35;;;;;;;4.00;1.40;;;26.80;62.40;;;;;;4963489;29;20309;-72
2023/07/23 09:09:08;;;;;;;2.33;1.10;;;26.70;62.30;;;;;;4964326;29;20043;-72
2023/07/23 09:11:35;;;;;;;3.83;1.27;;;26.90;62.00;;;;;;4963767;29;20083;-71
2023/07/23 09:14:12;;;;;;;2.53;1.50;;;27.00;61.70;;;;;;4964238;29;20031;-72
2023/07/23 09:16:40;;;;;;;2.25;1.27;;;27.20;61.40;;;;;;4966978;29;20082;-72
2023/07/23 09:19:08;;;;;;;3.03;1.10;;;27.30;60.60;;;;;;4967955;29;20039;-73
2023/07/23 09:21:34;;;;;;;2.55;1.10;;;27.20;61.20;;;;;;4967541;29;20031;-72
2023/07/23 09:24:05;;;;;;;2.42;1.20;;;27.20;61.00;;;;;;4957346;29;20040;-72
2023/07/23 09:26:41;;;;;;;1.90;1.08;;;27.20;60.80;;;;;;4947238;29;20032;-76
2023/07/23 09:29:09;;;;;;;2.10;1.33;;;27.10;60.70;;;;;;4948283;28;20031;-72
2023/07/23 09:31:36;;;;;;;2.10;1.15;;;27.10;61.00;;;;;;4986275;28;20062;-74
2023/07/23 09:34:03;;;;;;;2.10;1.00;;;27.20;61.60;;;;;;4987552;28;20314;-73
2023/07/23 09:36:29;;;;;;;2.67;1.17;;;27.30;60.70;;;;;;4951557;29;20027;-74
2023/07/23 09:39:03;;;;;;;1.77;0.93;;;27.30;60.10;;;;;;4967192;29;20106;-75
2023/07/23 09:41:34;;;;;;;2.83;1.30;;;27.50;59.60;;;;;;4948859;29;20039;-74
2023/07/23 09:44:04;;;;;;;2.10;0.85;;;27.30;59.70;;;;;;4967356;29;20396;-74
2023/07/23 09:46:30;;;;;;;2.20;1.10;;;27.50;58.50;;;;;;4967227;29;20039;-73
2023/07/23 09:48:56;;;;;;;3.05;1.15;;;27.20;58.50;;;;;;4967037;29;20103;-76
2023/07/23 09:51:22;;;;;;;2.90;1.02;;;27.00;58.70;;;;;;4967519;29;20031;-74
2023/07/23 09:53:51;;;;;;;2.20;1.10;;;27.00;58.80;;;;;;4966970;29;20035;-74
2023/07/23 09:56:18;;;;;;;1.70;1.00;;;27.00;58.80;;;;;;4967039;29;20035;-74
2023/07/23 09:58:48;;;;;;;2.30;1.02;;;27.40;58.50;;;;;;4960729;28;20043;-75
2023/07/23 10:01:18;;;;;;;2.20;0.98;;;27.40;58.30;;;;;;4967328;29;20225;-73
2023/07/23 10:03:48;;;;;;;2.83;1.00;;;27.10;58.40;;;;;;4949924;29;20043;-73
2023/07/23 10:06:21;;;;;;;2.50;1.10;;;27.20;59.00;;;;;;4967170;29;20038;-74
2023/07/23 10:08:48;;;;;;;2.97;1.45;;;27.20;58.90;;;;;;4962397;29;20103;-73
2023/07/23 10:11:17;;;;;;;4.57;1.00;;;27.20;58.60;;;;;;4967305;29;20035;-73
2023/07/23 10:13:44;;;;;;;4.35;1.17;;;27.40;58.60;;;;;;4966543;29;20335;-76
2023/07/23 10:16:16;;;;;;;2.97;1.33;;;27.70;58.30;;;;;;4961887;29;20103;-73
2023/07/23 10:18:43;;;;;;;2.47;1.20;;;27.80;57.70;;;;;;4966585;29;20043;-71
2023/07/23 10:21:10;;;;;;;2.72;1.20;;;27.90;57.30;;;;;;4966805;29;20324;-76
2023/07/23 10:23:39;;;;;;;2.20;1.00;;;27.90;57.30;;;;;;4965194;29;20313;-73
2023/07/23 10:26:29;;;;;;;1.98;1.00;;;28.00;57.50;;;;;;4966314;28;20019;-76
2023/07/23 10:29:06;;;;;;;3.08;1.20;;;28.10;57.20;;;;;;4966280;29;20098;-72
2023/07/23 10:31:32;;;;;;;2.50;1.30;;;27.90;57.30;;;;;;4966768;29;20369;-75
2023/07/23 10:33:58;;;;;;;4.25;1.30;;;27.60;57.80;;;;;;4966794;29;20055;-73
2023/07/23 10:36:24;;;;;;;3.55;1.45;;;27.40;58.20;;;;;;4964988;29;20035;-72
2023/07/23 10:39:18;;;;;;;2.72;1.10;;;27.50;58.40;;;;;;4966009;29;20048;-73
2023/07/23 10:41:53;;;;;;;2.72;1.38;;;27.30;58.30;;;;;;4965865;29;20047;-72
2023/07/23 10:44:28;;;;;;;2.85;1.35;;;27.10;58.60;;;;;;4966281;29;20042;-72
2023/07/23 10:46:57;;;;;;;3.95;1.75;;;26.90;59.10;;;;;;4966124;29;20380;-71
2023/07/23 10:49:28;;;;;;;2.70;1.30;;;27.00;59.20;;;;;;4949825;29;20245;-73
2023/07/23 10:51:54;;;;;;;2.10;1.15;;;27.40;58.50;;;;;;4965806;29;20035;-71
2023/07/23 10:54:21;;;;;;;2.38;1.25;;;28.00;58.40;;;;;;4966457;29;20086;-71
2023/07/23 10:56:49;;;;;;;4.05;1.20;;;28.40;57.70;;;;;;4952747;29;20031;-72
2023/07/23 10:59:22;;;;;;;2.28;1.20;;;28.90;57.40;;;;;;4965835;28;20055;-71
2023/07/23 11:01:51;;;;;;;2.45;1.20;;;28.80;57.40;;;;;;4951712;29;20075;-74
2023/07/23 11:04:24;;;;;;;3.05;1.40;;;28.60;56.80;;;;;;4966381;29;20053;-71
2023/07/23 11:07:00;;;;;;;2.42;1.33;;;28.50;57.20;;;;;;4965594;29;20035;-72
2023/07/23 11:09:30;;;;;;;3.17;1.50;;;28.80;56.10;;;;;;4946631;29;20058;-72
2023/07/23 11:11:57;;;;;;;2.67;1.40;;;28.70;56.40;;;;;;4929179;29;20314;-72
2023/07/23 11:14:30;;;;;;;2.67;1.52;;;28.80;56.60;;;;;;4964210;29;20055;-72
2023/07/23 11:17:00;;;;;;;3.15;1.20;;;29.00;56.30;;;;;;4964606;29;20069;-73
2023/07/23 11:19:27;;;;;;;2.15;1.25;;;28.90;57.00;;;;;;4949549;29;20031;-72
2023/07/23 11:21:56;;;;;;;2.08;1.10;;;29.00;56.70;;;;;;4946344;29;20067;-70
2023/07/23 11:24:23;;;;;;;2.22;1.27;;;29.30;56.70;;;;;;4945445;29;20261;-72
2023/07/23 11:26:50;;;;;;;2.17;1.05;;;29.40;56.30;;;;;;4946194;29;20083;-72
2023/07/23 11:29:16;;;;;;;3.92;1.75;;;29.90;55.30;;;;;;4946668;29;20031;-71
2023/07/23 11:31:44;;;;;;;2.30;1.40;;;30.00;55.20;;;;;;4947774;29;20031;-71
2023/07/23 11:34:12;;;;;;;2.87;1.27;;;30.00;54.40;;;;;;4965347;29;20042;-73
2023/07/23 11:36:38;;;;;;;3.45;1.63;;;29.80;55.10;;;;;;4964436;29;20049;-70
2023/07/23 11:39:09;;;;;;;2.30;1.23;;;30.00;54.30;;;;;;4964734;28;20051;-72
2023/07/23 11:41:40;;;;;;;2.40;1.45;;;30.10;54.50;;;;;;4964678;29;20047;-71
2023/07/23 11:44:07;;;;;;;2.15;1.40;;;30.50;54.20;;;;;;4965210;29;20331;-70
2023/07/23 11:46:38;;;;;;;4.28;1.90;;;31.40;53.40;;;;;;4965045;29;20325;-71
2023/07/23 11:49:06;;;;;;;2.95;1.52;;;31.70;52.50;;;;;;4965599;29;20054;-69
2023/07/23 11:51:33;;;;;;;2.10;1.20;;;31.70;52.00;;;;;;4964990;29;20057;-70
2023/07/23 11:54:00;;;;;;;3.28;1.50;;;32.70;50.70;;;;;;4964575;29;20031;-73
2023/07/23 11:56:26;;;;;;;2.70;1.42;;;33.20;48.80;;;;;;4964580;29;20090;-73
2023/07/23 11:58:52;;;;;;;3.45;1.80;;;32.50;49.40;;;;;;4958957;28;20155;-71
2023/07/23 12:01:18;;;;;;;2.22;1.40;;;32.40;50.00;;;;;;4963639;29;20058;-71
2023/07/23 12:03:45;;;;;;;2.33;1.42;;;32.00;50.20;;;;;;4964730;29;20301;-70
2023/07/23 12:06:15;;;;;;;2.90;1.60;;;31.70;50.70;;;;;;4965110;29;20050;-71
2023/07/23 12:08:47;;;;;;;4.57;1.52;;;32.10;49.20;;;;;;4959633;29;20058;-72
2023/07/23 12:11:14;;;;;;;2.92;1.58;;;31.80;49.40;;;;;;4964703;29;20023;-72
2023/07/23 12:13:57;;;;;;;3.57;1.70;;;32.00;49.80;;;;;;4947068;29;20035;-72
2023/07/23 12:16:36;;;;;;;2.38;1.50;;;32.20;49.40;;;;;;4964667;29;20043;-76
2023/07/23 12:19:16;;;;;;;2.92;1.77;;;31.80;49.30;;;;;;4947270;29;20258;-71
2023/07/23 12:21:47;;;;;;;4.22;1.70;;;31.60;50.10;;;;;;4948615;29;20034;-71
2023/07/23 12:24:12;;;;;;;2.85;1.52;;;31.10;50.20;;;;;;4945659;29;20305;-71
2023/07/23 12:26:38;;;;;;;3.35;1.85;;;30.50;50.90;;;;;;4944924;29;20071;-72
2023/07/23 12:29:05;;;;;;;3.05;1.90;;;30.40;51.30;;;;;;4945606;29;20055;-71
2023/07/23 12:31:30;;;;;;;3.67;1.80;;;30.10;51.50;;;;;;4945565;29;20103;-71
2023/07/23 12:33:56;;;;;;;2.88;1.60;;;29.80;52.00;;;;;;4944086;29;20046;-72
2023/07/23 12:36:22;;;;;;;2.58;1.70;;;29.50;52.30;;;;;;4944083;29;20071;-70
2023/07/23 12:38:48;;;;;;;3.28;1.55;;;29.30;52.70;;;;;;4945209;29;20047;-70
2023/07/23 12:41:13;;;;;;;2.78;1.73;;;29.00;52.80;;;;;;4951986;29;20165;-70
2023/07/23 12:43:40;;;;;;;2.95;1.50;;;29.00;53.60;;;;;;4964174;29;20031;-71
2023/07/23 12:46:05;;;;;;;2.70;1.45;;;28.80;54.00;;;;;;4964778;29;20035;-69
2023/07/23 12:48:31;;;;;;;3.38;1.67;;;28.50;54.50;;;;;;4964168;29;20030;-70
2023/07/23 12:50:57;;;;;;;2.60;1.50;;;28.60;54.70;;;;;;4966587;28;20098;-70
2023/07/23 12:53:23;;;;;;;2.88;1.77;;;28.60;55.00;;;;;;4968528;29;20221;-70
2023/07/23 12:55:48;;;;;;;3.10;1.90;;;28.80;54.80;;;;;;4967765;29;20042;-71
2023/07/23 12:58:14;;;;;;;3.47;1.90;;;28.60;55.20;;;;;;4968124;28;20305;-70
2023/07/23 13:00:40;;;;;;;4.97;1.77;;;28.50;55.50;;;;;;4967627;28;20050;-70
2023/07/23 13:03:06;;;;;;;3.03;1.67;;;28.60;55.60;;;;;;4964454;29;20027;-69
2023/07/23 13:05:33;;;;;;;3.25;1.90;;;28.60;55.60;;;;;;4968418;29;20063;-69
2023/07/23 13:08:02;;;;;;;3.53;1.70;;;28.70;55.80;;;;;;4968005;29;20102;-69
2023/07/23 13:10:27;;;;;;;2.80;1.70;;;28.80;55.90;;;;;;4966976;29;20035;-71
2023/07/23 13:12:53;;;;;;;2.85;1.85;;;28.80;55.40;;;;;;4967744;29;20027;-70
2023/07/23 13:15:19;;;;;;;4.50;1.98;;;28.70;55.80;;;;;;4951193;29;20043;-70
2023/07/23 13:17:47;;;;;;;3.05;1.98;;;28.70;55.80;;;;;;4968212;29;20038;-70
2023/07/23 13:20:12;;;;;;;4.28;1.88;;;28.70;55.50;;;;;;4968612;29;20029;-72
2023/07/23 13:22:38;;;;;;;3.90;1.92;;;28.60;56.00;;;;;;4962438;29;20027;-70
2023/07/23 13:25:04;;;;;;;2.97;1.80;;;28.50;55.60;;;;;;4967338;29;20391;-71
2023/07/23 13:27:30;;;;;;;4.32;1.85;;;28.40;55.80;;;;;;4950926;29;20023;-70
2023/07/23 13:29:55;;;;;;;2.67;1.88;;;28.40;56.50;;;;;;4967262;29;20039;-71
2023/07/23 13:32:21;;;;;;;3.75;1.77;;;28.40;56.50;;;;;;4968082;29;20078;-70
2023/07/23 13:34:47;;;;;;;3.25;2.00;;;28.40;56.50;;;;;;4950219;29;20116;-71
2023/07/23 13:37:12;;;;;;;4.90;2.20;;;28.50;56.60;;;;;;4967865;29;20031;-72
2023/07/23 13:39:38;;;;;;;3.00;1.90;;;28.60;54.90;;;;;;4967717;29;20023;-72
2023/07/23 13:42:04;;;;;;;6.10;2.15;;;28.50;54.70;;;;;;4967047;29;20054;-70
2023/07/23 13:44:30;;;;;;;3.75;2.20;;;28.50;54.40;;;;;;4961186;29;20039;-69
2023/07/23 13:46:55;;;;;;;4.38;2.17;;;28.60;54.30;;;;;;4967357;29;20023;-71
2023/07/23 13:49:21;;;;;;;3.45;2.05;;;28.80;54.40;;;;;;4967724;29;20027;-73
2023/07/23 13:51:47;;;;;;;3.58;2.20;;;28.90;53.70;;;;;;4967008;29;20278;-72
2023/07/23 13:54:12;;;;;;;4.85;3.03;;;29.20;53.40;;;;;;4967444;29;20083;-71
2023/07/23 13:56:38;;;;;;;3.53;2.22;;;29.20;53.10;;;;;;4967047;29;20038;-71
2023/07/23 13:59:04;;;;;;;4.43;2.58;;;29.30;53.10;;;;;;4965651;28;20214;-71
2023/07/23 14:01:29;;;;;;;4.15;2.70;;;29.30;52.90;;;;;;4967169;28;20142;-70
2023/07/23 14:03:55;;;;;;;4.30;2.85;;;29.10;53.20;;;;;;4962883;29;20062;-72
2023/07/23 14:06:22;;;;;;;4.85;2.47;;;29.10;53.10;;;;;;4967023;29;20042;-71
2023/07/23 14:08:48;;;;;;;4.70;2.58;;;29.10;53.40;;;;;;4966603;29;20376;-72
2023/07/23 14:11:13;;;;;;;3.85;2.38;;;29.20;52.80;;;;;;4967005;29;20046;-73
2023/07/23 14:13:39;;;;;;;5.80;2.83;;;29.10;52.60;;;;;;4966991;29;20047;-71
2023/07/23 14:16:05;;;;;;;4.35;2.47;;;29.00;52.60;;;;;;4966271;29;20106;-70
2023/07/23 14:18:31;;;;;;;5.43;2.85;;;29.00;51.30;;;;;;4967247;29;20369;-72
2023/07/23 14:20:56;;;;;;;4.93;2.60;;;29.00;49.30;;;;;;4966433;29;20217;-72
2023/07/23 14:23:22;;;;;;;4.30;2.70;;;28.80;49.80;;;;;;4966680;29;20035;-72
2023/07/23 14:25:48;;;;;;;3.85;2.45;;;28.90;49.30;;;;;;4965392;29;20343;-71
2023/07/23 14:28:13;;;;;;;4.35;2.63;;;28.90;49.00;;;;;;4949341;29;20035;-70
2023/07/23 14:30:40;;;;;;;4.60;2.58;;;28.90;48.20;;;;;;4981700;28;20099;-70
2023/07/23 14:33:05;;;;;;;5.10;2.72;;;28.80;48.50;;;;;;4966042;29;20371;-71
2023/07/23 14:35:32;;;;;;;5.78;2.90;;;28.80;49.00;;;;;;4966702;29;20031;-70
2023/07/23 14:37:58;;;;;;;5.15;2.67;;;28.70;49.40;;;;;;4966108;29;20042;-71
2023/07/23 14:40:24;;;;;;;5.82;2.42;;;28.40;50.00;;;;;;4966276;29;20027;-71
2023/07/23 14:42:49;;;;;;;5.80;2.35;;;28.20;50.70;;;;;;4965268;29;20035;-72
2023/07/23 14:45:16;;;;;;;4.88;2.60;;;28.10;51.50;;;;;;4961002;29;20209;-70
2023/07/23 14:47:41;;;;;;;4.45;2.65;;;28.00;51.80;;;;;;4966661;29;20041;-71
2023/07/23 14:50:08;;;;;;;4.70;2.42;;;28.10;51.80;;;;;;4981068;28;20054;-71
2023/07/23 14:52:34;;;;;;;4.82;2.80;;;28.10;52.20;;;;;;4966347;29;20043;-70
2023/07/23 14:55:02;;;;;;;4.00;2.47;;;28.20;52.40;;;;;;4965807;29;20058;-72
2023/07/23 14:57:28;;;;;;;4.40;2.72;;;28.20;52.60;;;;;;4966568;29;20043;-71
2023/07/23 14:59:55;;;;;;;4.65;2.70;;;28.20;53.00;;;;;;4965242;28;20058;-72
2023/07/23 15:02:21;;;;;;;4.45;2.53;;;28.00;52.90;;;;;;4966326;29;20035;-70
2023/07/23 15:04:47;;;;;;;5.38;3.08;;;27.90;53.10;;;;;;4966110;29;20098;-71
2023/07/23 15:07:14;;;;;;;5.30;3.00;;;27.60;52.50;;;;;;4960899;29;20054;-71
2023/07/23 15:09:40;;;;;;;6.18;3.15;;;27.50;52.30;;;;;;4966066;29;20035;-70
2023/07/23 15:12:06;;;;;;;4.95;2.95;;;27.30;52.30;;;;;;4948497;28;20220;-71
2023/07/23 15:14:32;;;;;;;5.45;3.30;;;27.30;52.50;;;;;;4948562;29;20045;-71
2023/07/23 15:16:58;;;;;;;4.63;2.90;;;27.20;52.60;;;;;;4948571;29;20058;-71
2023/07/23 15:19:24;;;;;;;4.80;2.97;;;27.10;52.60;;;;;;4966267;29;20039;-71
2023/07/23 15:21:50;;;;;;;5.32;3.30;;;27.10;52.80;;;;;;4966807;29;20078;-70
2023/07/23 15:24:17;;;;;;;5.70;2.72;;;27.10;53.20;;;;;;4965777;29;20321;-72
2023/07/23 15:26:44;;;;;;;5.65;3.38;;;27.10;52.90;;;;;;4951072;29;20071;-72
2023/07/23 15:29:12;;;;;;;5.72;2.97;;;27.10;53.00;;;;;;4946209;29;20098;-74
2023/07/23 15:31:38;;;;;;;4.82;2.70;;;27.10;53.00;;;;;;4946454;29;20333;-71
2023/07/23 15:34:04;;;;;;;4.45;2.90;;;27.10;53.10;;;;;;4946252;29;20095;-72
2023/07/23 15:36:30;;;;;;;5.40;3.22;;;27.10;53.00;;;;;;4946596;29;20032;-72
2023/07/23 15:38:58;;;;;;;5.22;2.88;;;27.00;53.30;;;;;;4944865;29;20325;-71
2023/07/23 15:41:24;;;;;;;5.85;3.13;;;26.90;53.70;;;;;;4946266;29;20092;-72
2023/07/23 15:43:49;;;;;;;5.07;3.35;;;26.90;53.80;;;;;;4946031;29;20034;-71
2023/07/23 15:46:15;;;;;;;4.95;3.10;;;26.90;54.30;;;;;;4950802;29;20212;-71
2023/07/23 15:48:41;;;;;;;5.65;3.33;;;26.90;54.70;;;;;;4965229;29;20030;-71
2023/07/23 15:51:06;;;;;;;5.47;3.20;;;26.90;54.90;;;;;;4964819;29;20039;-71
2023/07/23 15:53:32;;;;;;;6.15;3.10;;;26.80;55.00;;;;;;4965378;29;20023;-70
2023/07/23 15:55:58;;;;;;;6.40;3.13;;;26.90;55.10;;;;;;4964516;29;20035;-71
2023/07/23 15:58:26;;;;;;;5.13;3.08;;;26.90;55.10;;;;;;4965146;28;20102;-71
2023/07/23 16:00:55;;;;;;;5.32;3.20;;;27.00;55.00;;;;;;4964749;28;20222;-71
2023/07/23 16:03:24;;;;;;;5.32;3.55;;;27.00;55.20;;;;;;4965076;29;20039;-72
2023/07/23 16:05:49;;;;;;;5.00;3.28;;;27.00;55.10;;;;;;4965026;29;20033;-71
2023/07/23 16:08:15;;;;;;;7.88;3.88;;;27.00;55.00;;;;;;4962062;29;20313;-72
2023/07/23 16:10:44;;;;;;;5.60;3.45;;;27.00;55.20;;;;;;4964806;29;20027;-71
2023/07/23 16:13:10;;;;;;;5.93;4.03;;;27.00;55.10;;;;;;4931489;29;20228;-71
2023/07/23 16:15:36;;;;;;;8.30;3.75;;;27.00;54.90;;;;;;4964810;29;20058;-72
2023/07/23 16:18:03;;;;;;;6.45;4.07;;;27.00;54.70;;;;;;4964892;29;20106;-70
2023/07/23 16:20:28;;;;;;;6.35;3.85;;;26.90;55.10;;;;;;4964618;29;20054;-71
2023/07/23 16:22:54;;;;;;;6.35;3.80;;;26.80;55.50;;;;;;4964831;29;20296;-73
2023/07/23 16:25:19;;;;;;;7.55;4.50;;;26.60;56.10;;;;;;4963956;29;20046;-71
2023/07/23 16:27:45;;;;;;;9.02;4.47;;;26.60;56.40;;;;;;4959609;29;20058;-71
2023/07/23 16:30:11;;;;;;;14.05;5.35;;;26.60;57.40;;;;;;4964187;29;20042;-71
2023/07/23 16:32:37;;;;;;;6.35;3.92;;;26.50;57.30;;;;;;4964711;29;20029;-71
2023/07/23 16:35:03;;;;;;;7.10;4.38;;;26.40;57.20;;;;;;4964437;29;20042;-70
2023/07/23 16:37:36;;;;;;;6.18;4.15;;;26.40;57.50;;;;;;4965120;29;20031;-71
2023/07/23 16:40:02;;;;;;;6.93;4.70;;;26.40;57.50;;;;;;4964693;29;20035;-71
2023/07/23 16:42:29;;;;;;;6.32;4.10;;;26.30;57.20;;;;;;4947562;29;20213;-71
2023/07/23 16:44:56;;;;;;;10.05;4.78;;;26.30;56.90;;;;;;4963972;29;20069;-72
2023/07/23 16:47:22;;;;;;;9.55;4.93;;;26.40;56.50;;;;;;4964686;29;20027;-71
2023/07/23 16:49:48;;;;;;;7.47;4.85;;;26.40;56.60;;;;;;4960827;29;20098;-71
2023/07/23 16:52:20;;;;;;;7.45;4.68;;;26.40;56.40;;;;;;4964728;29;20321;-71
2023/07/23 16:54:47;;;;;;;8.20;4.35;;;26.60;56.20;;;;;;4964847;29;20042;-70
2023/07/23 16:57:13;;;;;;;6.90;4.30;;;26.60;56.20;;;;;;4964420;29;20051;-70
2023/07/23 16:59:41;;;;;;;7.10;4.50;;;26.50;56.30;;;;;;4964402;28;20071;-72
2023/07/23 17:02:06;;;;;;;7.07;4.40;;;26.50;56.20;;;;;;4964084;29;20035;-71
2023/07/23 17:04:32;;;;;;;7.38;4.78;;;26.60;56.30;;;;;;4964672;29;20027;-72
2023/07/23 17:06:58;;;;;;;6.70;4.70;;;26.50;56.50;;;;;;4964075;29;20075;-72
2023/07/23 17:09:23;;;;;;;6.60;4.30;;;26.50;56.40;;;;;;4958154;29;20028;-73
2023/07/23 17:11:51;;;;;;;7.78;4.95;;;26.50;56.30;;;;;;4945188;29;20038;-70
2023/07/23 17:14:17;;;;;;;6.50;4.30;;;26.60;56.40;;;;;;4944722;29;20035;-71
2023/07/23 17:16:43;;;;;;;7.82;4.65;;;26.50;56.40;;;;;;4963682;28;20035;-70
2023/07/23 17:19:09;;;;;;;6.32;4.00;;;26.50;56.50;;;;;;4963712;29;20358;-73
2023/07/23 17:21:36;;;;;;;7.00;4.60;;;26.40;56.40;;;;;;4964297;29;20036;-73
2023/07/23 17:24:01;;;;;;;7.18;4.63;;;26.40;56.60;;;;;;4963510;29;20038;-72
2023/07/23 17:26:27;;;;;;;7.22;4.10;;;26.40;56.90;;;;;;4964937;28;20035;-71
2023/07/23 17:28:55;;;;;;;8.43;4.38;;;26.40;57.00;;;;;;4963918;28;20029;-77
2023/07/23 17:31:24;;;;;;;;;;;26.30;57.20;;;;;;4946659;29;20039;-73
2023/07/23 17:33:50;;;;;;;8.02;4.20;;;26.20;57.50;;;;;;4964055;29;19906;-72
2023/07/23 17:36:15;;;;;;;8.93;4.82;;;26.20;57.60;;;;;;4947811;29;20242;-74
2023/07/23 17:38:41;;;;;;;6.28;4.00;;;26.30;57.70;;;;;;4967733;29;20035;-72
2023/07/23 17:41:06;;;;;;;10.35;4.38;;;26.30;57.90;;;;;;4968027;29;20042;-72
2023/07/23 17:43:35;;;;;;;7.60;4.53;;;26.30;57.70;;;;;;4967838;29;20023;-73
2023/07/23 17:46:01;;;;;;;7.65;4.43;;;26.20;58.00;;;;;;4967154;29;20102;-73
2023/07/23 17:48:26;;;;;;;6.90;4.72;;;26.20;58.00;;;;;;4967091;29;20038;-74
2023/07/23 17:50:53;;;;;;;7.22;4.32;;;26.20;57.90;;;;;;4962115;29;20059;-72
2023/07/23 17:53:19;;;;;;;5.90;4.00;;;26.20;57.80;;;;;;4949820;29;20033;-73
2023/07/23 17:55:48;;;;;;;12.65;7.53;;;26.20;58.10;;;;;;4967474;29;20080;-73
2023/07/23 17:58:14;;;;;;;8.52;4.57;;;26.10;58.30;;;;;;4967077;28;20106;-74
2023/07/23 18:00:40;;;;;;;7.53;4.57;;;26.00;58.40;;;;;;4967033;28;20392;-71
2023/07/23 18:03:06;;;;;;;9.00;5.15;;;26.00;58.60;;;;;;4966822;29;20099;-70
2023/07/23 18:05:32;;;;;;;9.40;6.00;;;25.90;59.30;;;;;;4967054;29;20031;-70
2023/07/23 18:07:58;;;;;;;8.48;5.65;;;25.80;59.30;;;;;;4967236;29;20035;-71
2023/07/23 18:10:24;;;;;;;9.05;5.57;;;25.70;59.40;;;;;;4967119;29;20027;-72
2023/07/23 18:12:50;;;;;;;7.22;4.97;;;25.70;59.60;;;;;;4948183;29;20166;-71
2023/07/23 18:15:16;;;;;;;7.80;5.07;;;25.60;59.90;;;;;;4947698;29;20034;-70
2023/07/23 18:17:42;;;;;;;8.43;5.30;;;25.60;59.70;;;;;;4948031;29;20042;-70
2023/07/23 18:20:10;;;;;;;7.68;4.97;;;25.70;59.50;;;;;;4947065;29;20039;-71
2023/07/23 18:22:36;;;;;;;10.10;7.00;;;25.90;59.70;;;;;;4947953;29;20087;-70
2023/07/23 18:25:02;;;;;;;19.02;15.23;;;26.00;59.40;;;;;;4960352;29;20035;-73
2023/07/23 18:27:27;;;;;;;14.90;11.05;;;26.00;59.30;;;;;;4967223;29;20033;-72
2023/07/23 18:29:53;;;;;;;11.90;9.13;;;26.00;59.10;;;;;;4966926;29;20055;-72
2023/07/23 18:32:19;;;;;;;8.68;6.15;;;25.90;59.00;;;;;;4960496;29;20317;-72
2023/07/23 18:34:45;;;;;;;9.57;5.80;;;25.80;59.30;;;;;;4947620;29;20135;-72
2023/07/23 18:37:11;;;;;;;8.90;5.45;;;25.70;59.80;;;;;;4947027;29;20050;-71
2023/07/23 18:39:37;;;;;;;8.95;5.93;;;25.50;60.00;;;;;;4947708;29;20135;-71
2023/07/23 18:42:04;;;;;;;10.45;6.72;;;25.40;60.50;;;;;;4947061;29;20036;-71
2023/07/23 18:44:29;;;;;;;10.02;5.80;;;25.30;60.60;;;;;;4947760;29;20038;-70
2023/07/23 18:46:55;;;;;;;8.43;4.97;;;25.10;61.00;;;;;;4947355;29;20039;-71
2023/07/23 18:49:21;;;;;;;9.20;5.10;;;25.00;61.20;;;;;;4946117;29;20054;-70
2023/07/23 18:51:47;;;;;;;8.95;5.45;;;24.90;61.80;;;;;;4947604;29;20020;-72
2023/07/23 18:54:12;;;;;;;9.00;5.43;;;24.70;62.50;;;;;;4947706;29;20099;-70
2023/07/23 18:56:38;;;;;;;10.50;7.20;;;24.60;62.40;;;;;;4966983;29;20035;-71
2023/07/23 18:59:04;;;;;;;10.45;5.93;;;24.50;63.60;;;;;;4965620;28;20345;-71
2023/07/23 19:01:29;;;;;;;9.25;5.50;;;24.40;63.40;;;;;;4949318;29;20057;-70
2023/07/23 19:03:55;;;;;;;14.82;11.02;;;24.20;63.70;;;;;;4966323;29;20035;-70
2023/07/23 19:06:21;;;;;;;12.60;8.13;;;24.10;64.20;;;;;;4965799;29;20092;-70
2023/07/23 19:08:49;;;;;;;10.35;6.82;;;24.00;65.00;;;;;;4966244;29;20059;-72
2023/07/23 19:11:15;;;;;;;8.57;5.78;;;23.90;64.60;;;;;;4961156;29;20035;-72
2023/07/23 19:13:41;;;;;;;9.88;6.53;;;23.80;64.90;;;;;;4956566;29;20062;-71
2023/07/23 19:16:06;;;;;;;10.25;5.93;;;23.70;65.70;;;;;;4945904;29;20063;-70
2023/07/23 19:18:32;;;;;;;9.60;5.47;;;23.60;65.90;;;;;;4964335;29;20035;-70
2023/07/23 19:20:58;;;;;;;8.65;5.32;;;23.50;66.00;;;;;;4965931;29;20083;-72
2023/07/23 19:23:24;;;;;;;8.80;5.57;;;23.40;65.50;;;;;;4965085;29;20328;-70
2023/07/23 19:25:49;;;;;;;8.43;5.80;;;23.30;66.00;;;;;;4946595;29;20062;-72
2023/07/23 19:28:15;;;;;;;10.23;6.82;;;23.30;66.10;;;;;;4946115;29;20087;-71
2023/07/23 19:30:43;;;;;;;11.00;6.55;;;23.10;67.40;;;;;;4961849;29;20065;-71
2023/07/23 19:33:08;;;;;;;9.10;5.57;;;23.00;68.40;;;;;;4965424;29;20043;-71
2023/07/23 19:35:34;;;;;;;11.70;6.18;;;22.90;67.70;;;;;;4965587;29;20483;-70
2023/07/23 19:38:01;;;;;;;10.38;7.15;;;22.80;68.50;;;;;;4965765;29;20098;-70
2023/07/23 19:40:27;;;;;;;9.65;6.55;;;22.70;69.10;;;;;;4965053;29;20325;-70
2023/07/23 19:42:53;;;;;;;9.10;5.93;;;22.60;68.90;;;;;;4965563;29;20056;-72
2023/07/23 19:45:19;;;;;;;10.73;6.65;;;22.50;68.50;;;;;;4964710;29;20042;-71